Kaneohe, HI

03:29 AM HST am 24. Oktober 2014 (GMT -1000)
Kaneohe Bay Dr | Change Station
CLOSE
Current Station
Persönliche Wetterstationen
Location: Kaneohe, HI
Höhe: 78 ft
Wetterstationen in der Umgebung

Höhe 78 ft 21.41 °N, 157.77 °W | Updated 6 seconds ago

Regen
Regen
73.9 °F
gefühlte 71 °F
N
0.0
Wind Wechselnd Wind aus West-Nordwest
Gusts 0.0 mph

Heute
Max. -- | schwach -- °F
--% Regenrisiko
Gestern
Max. -- | schwach -- °F
Precip. -- inch
6:30 AM 5:59 PM
Neumond, 0% visible
Druck 29.99 inch
Sichtweite 10.0 Meilen
Wolken Few 2200 ft
Wolkig 3900 ft
Bedeckt 5500 ft
Hitzeindex 71 °F
Taupunkt 72 °F
Feuchtigkeit 94%
Regen 0.05 inch
Schneehöhe Nicht verfügbar..
UV 0 von 12
Pollen Nicht verfügbar..
PM2.5 Gut
Flu Activity Sporadic
METAR PHNG 241257Z 08006KT 10SM FEW022 BKN039 OVC055 25/21 A3000 RMK AO2 RAB46E56 SLP154 P0000 T02500211 $

More Conditions Fewer Conditions

Druck 29.99 inch
Sichtweite 10.0 Meilen
Wolken Few 2200 ft
Wolkig 3900 ft
Bedeckt 5500 ft
Hitzeindex 71 °F
Taupunkt 72 °F
Feuchtigkeit 94%
Regen 0.05 inch
Schneehöhe Nicht verfügbar..
UV 0 von 12
Pollen Nicht verfügbar..
PM2.5 Gut
Flu Activity Sporadic
METAR PHNG 241257Z 08006KT 10SM FEW022 BKN039 OVC055 25/21 A3000 RMK AO2 RAB46E56 SLP154 P0000 T02500211 $

More Conditions Fewer Conditions

10-Day Weather Forecast

Almanac

Astronomie

Oct. 24, 2014 Aufgang Untergang
Genaue Zeit 06:30 HST 17:59 HST
Bürgerliche Dämmerung 06:08 HST 18:22 HST
Nautische Dämmerung 05:41 HST 18:48 HST
Astronomische Dämmerung 05:15 HST 19:14 HST
Mond 07:16 HST 18:54 HST
Länge des sichtbaren Lichts 12h 14m
Tageslänge
11h 29m
Tomorrow will be 1m 6s shorter.
Neumond, 0% of the Moon is Illuminated
Heute
Neumond
Okt 30
Erstes Viertel
Nov 6
Vollmond
Nov 14
Letztes Viertel
Nov 22
Neu

Heutige Rekorde

State Highs State Lows

Community

WunderPhotos

Upload Photos

1,764,549 Fotos hochgeladen!

WunderBlogs® & News

Nearby

Luftqualität

  Luftqualität LQ Index Schadstoff
Gestern Gut
PM2.5
Aktuell Gut
PM2.5
Freitag Gut
OZONE

Schneehöhe

Station Depth Höhe
Kein Neuschnee gemeldet.

Erdbebenaktivität

Stadt Distance Mag. Time & Date
No recent earthquake activity has been reported nearby.
Minimum magnitude displayed is 2.5.

küstennahe Wassertemperaturen

Ort Temperatur
Kein Stationsbericht

Wetterstationen in der Umgebung